Time;durP1;ratioP1;P1;durP2;ratioP2;P2;SDS_P1;SDS_P2;PMS_P1;PMS_P2;Temp;Humidity;BMP_temperature;BMP_pressure;BME280_temperature;BME280_humidity;BME280_pressure;Samples;Min_cycle;Max_cycle;Signal;HPM_P1;HPM_P2
2023/11/26 05:06:44;;;;;;;0.30;0.30;;;3.10;99.90;;;;;;5270634;23;20232;-65
2023/11/26 05:09:13;;;;;;;0.40;0.40;;;3.10;99.90;;;;;;5015932;28;20175;-64
2023/11/26 05:11:45;;;;;;;0.40;0.40;;;3.10;99.90;;;;;;5015939;28;20164;-64
2023/11/26 05:14:11;;;;;;;0.30;0.30;;;3.00;99.90;;;;;;5001696;28;20184;-64
2023/11/26 05:16:38;;;;;;;0.30;0.30;;;3.00;99.90;;;;;;4998447;28;20204;-64
2023/11/26 05:19:04;;;;;;;0.30;0.30;;;3.00;99.90;;;;;;4996207;28;20203;-64
2023/11/26 05:21:29;;;;;;;0.30;0.30;;;3.00;99.90;;;;;;4996395;28;20182;-64
2023/11/26 05:23:55;;;;;;;0.30;0.30;;;3.00;99.90;;;;;;4966852;28;20168;-64
2023/11/26 05:26:21;;;;;;;0.33;0.33;;;3.00;99.90;;;;;;4976495;28;20522;-64
2023/11/26 05:28:47;;;;;;;0.40;0.40;;;3.00;99.90;;;;;;4976765;28;20545;-65
2023/11/26 05:31:14;;;;;;;0.40;0.40;;;3.00;99.90;;;;;;4976673;28;20263;-64
2023/11/26 05:33:40;;;;;;;0.30;0.30;;;2.90;99.90;;;;;;4976653;28;20408;-64
2023/11/26 05:36:07;;;;;;;0.30;0.30;;;2.90;99.90;;;;;;4974955;28;20266;-64
2023/11/26 05:38:32;;;;;;;0.30;0.30;;;2.90;99.90;;;;;;4976582;28;20907;-64
2023/11/26 05:40:58;;;;;;;0.40;0.40;;;2.80;99.90;;;;;;4976564;28;20263;-64
2023/11/26 05:43:25;;;;;;;0.30;0.30;;;2.70;99.90;;;;;;4981261;28;20650;-64
2023/11/26 05:45:51;;;;;;;0.30;0.30;;;2.70;99.90;;;;;;4993684;28;20204;-64
2023/11/26 05:48:18;;;;;;;0.63;0.63;;;2.60;99.90;;;;;;4991652;28;20172;-64
2023/11/26 05:50:43;;;;;;;0.40;0.40;;;2.60;99.90;;;;;;4976284;28;20394;-64
2023/11/26 05:53:09;;;;;;;0.30;0.30;;;2.60;99.90;;;;;;4976054;28;20183;-65
2023/11/26 05:55:35;;;;;;;0.30;0.30;;;2.60;99.90;;;;;;4988972;28;20330;-64
2023/11/26 05:58:00;;;;;;;0.30;0.30;;;2.60;99.90;;;;;;4995431;28;20210;-65
2023/11/26 06:00:26;;;;;;;0.30;0.30;;;2.60;99.90;;;;;;4995515;28;20297;-63
2023/11/26 06:02:52;;;;;;;0.40;0.40;;;2.70;99.90;;;;;;4995479;28;20303;-63
2023/11/26 06:05:18;;;;;;;0.40;0.40;;;2.70;99.90;;;;;;4983676;28;20192;-63
2023/11/26 06:07:43;;;;;;;0.40;0.40;;;2.60;99.90;;;;;;4983414;28;20187;-64
2023/11/26 06:10:09;;;;;;;0.40;0.40;;;2.70;99.90;;;;;;4980279;28;20416;-63
2023/11/26 06:12:35;;;;;;;0.40;0.40;;;2.80;99.90;;;;;;4975705;28;20632;-64
2023/11/26 06:15:01;;;;;;;0.40;0.40;;;2.80;99.90;;;;;;4983445;28;20289;-63
2023/11/26 06:17:27;;;;;;;0.30;0.30;;;2.90;99.90;;;;;;4995270;28;20411;-63
2023/11/26 06:19:53;;;;;;;0.30;0.30;;;3.00;99.90;;;;;;4993350;28;20199;-64
2023/11/26 06:22:18;;;;;;;0.40;0.40;;;3.00;99.90;;;;;;4981681;28;20254;-64
2023/11/26 06:24:45;;;;;;;0.40;0.40;;;3.10;99.90;;;;;;4975368;28;20263;-64
2023/11/26 06:27:11;;;;;;;0.30;0.30;;;3.10;99.90;;;;;;4975730;28;20215;-63
2023/11/26 06:29:37;;;;;;;0.40;0.40;;;3.10;99.90;;;;;;4975837;28;20568;-64
2023/11/26 06:32:04;;;;;;;0.30;0.30;;;3.10;99.90;;;;;;4975537;28;20423;-63
2023/11/26 06:34:30;;;;;;;0.30;0.30;;;3.10;99.90;;;;;;4976233;28;20171;-63
2023/11/26 06:36:56;;;;;;;0.30;0.30;;;3.10;99.90;;;;;;4975394;28;20211;-63
2023/11/26 06:39:23;;;;;;;0.30;0.30;;;3.20;99.90;;;;;;4975254;28;20927;-63
2023/11/26 06:41:49;;;;;;;0.30;0.30;;;3.20;99.90;;;;;;4975374;28;20177;-63
2023/11/26 06:44:14;;;;;;;0.30;0.30;;;3.30;99.90;;;;;;4979060;28;20181;-63
2023/11/26 06:46:41;;;;;;;0.30;0.30;;;3.30;99.90;;;;;;5005940;28;20221;-63
2023/11/26 06:49:06;;;;;;;0.38;0.38;;;3.30;99.90;;;;;;4994374;28;20175;-63
2023/11/26 06:51:32;;;;;;;0.30;0.30;;;3.30;99.90;;;;;;5001956;28;20285;-63
2023/11/26 06:53:57;;;;;;;0.40;0.40;;;3.40;99.90;;;;;;4996169;28;20186;-63
2023/11/26 06:56:24;;;;;;;0.30;0.30;;;3.40;99.90;;;;;;4996250;28;20223;-63
2023/11/26 06:58:49;;;;;;;0.30;0.30;;;3.50;99.90;;;;;;4994397;28;20686;-63
2023/11/26 07:01:15;;;;;;;0.40;0.40;;;3.50;99.90;;;;;;4994658;28;20177;-63
2023/11/26 07:03:42;;;;;;;0.47;0.47;;;3.60;99.90;;;;;;5001399;28;20202;-63
2023/11/26 07:06:10;;;;;;;0.30;0.30;;;3.60;99.90;;;;;;4999098;28;20443;-64
2023/11/26 07:08:37;;;;;;;0.30;0.30;;;3.70;99.90;;;;;;4992532;28;20205;-65
2023/11/26 07:11:04;;;;;;;0.38;0.38;;;3.70;99.90;;;;;;4993863;28;20187;-64
2023/11/26 07:13:29;;;;;;;0.30;0.30;;;3.80;99.90;;;;;;4994168;28;20184;-65
2023/11/26 07:15:55;;;;;;;0.40;0.40;;;3.80;99.90;;;;;;4988051;28;20225;-64
2023/11/26 07:18:21;;;;;;;0.40;0.40;;;3.80;99.90;;;;;;4994120;28;20654;-62
2023/11/26 07:20:46;;;;;;;0.30;0.30;;;3.80;99.90;;;;;;4994182;28;20555;-64
2023/11/26 07:23:13;;;;;;;0.47;0.47;;;3.90;99.90;;;;;;4994335;28;20176;-64
2023/11/26 07:25:39;;;;;;;0.40;0.40;;;3.90;99.90;;;;;;4984586;28;20419;-64
2023/11/26 07:28:08;;;;;;;0.40;0.40;;;3.80;99.90;;;;;;4975646;28;20181;-64
2023/11/26 07:30:42;;;;;;;0.47;0.47;;;3.80;99.90;;;;;;4994244;28;20245;-64
2023/11/26 07:33:07;;;;;;;0.40;0.40;;;3.70;99.90;;;;;;4993830;28;20179;-63
2023/11/26 07:35:33;;;;;;;0.30;0.30;;;3.70;99.90;;;;;;4985569;28;20206;-64
2023/11/26 07:38:01;;;;;;;0.40;0.40;;;3.60;99.90;;;;;;4974381;28;20220;-63
2023/11/26 07:40:28;;;;;;;0.30;0.30;;;3.60;99.90;;;;;;4974241;28;20548;-62
2023/11/26 07:42:55;;;;;;;0.40;0.40;;;3.60;99.90;;;;;;4981806;28;20222;-65
2023/11/26 07:45:20;;;;;;;0.47;0.47;;;3.70;99.90;;;;;;4992494;28;20275;-65
2023/11/26 07:47:46;;;;;;;0.30;0.30;;;3.70;99.90;;;;;;5009567;28;20262;-65
2023/11/26 07:50:12;;;;;;;0.40;0.40;;;3.80;99.90;;;;;;5007265;28;20202;-64
2023/11/26 07:52:39;;;;;;;0.30;0.30;;;3.90;99.90;;;;;;4993131;28;20185;-64
2023/11/26 07:55:05;;;;;;;0.35;0.35;;;4.00;99.90;;;;;;5006441;28;20202;-62
2023/11/26 07:57:36;;;;;;;0.40;0.40;;;4.00;99.90;;;;;;4999538;28;20181;-64
2023/11/26 08:00:02;;;;;;;0.30;0.30;;;4.10;99.90;;;;;;5013099;28;20206;-64
2023/11/26 08:02:29;;;;;;;0.32;0.32;;;4.10;99.90;;;;;;5012457;28;20239;-70
2023/11/26 08:04:56;;;;;;;0.30;0.30;;;4.10;99.90;;;;;;5009448;28;20163;-69
2023/11/26 08:07:26;;;;;;;0.40;0.40;;;4.10;99.90;;;;;;4985891;28;20183;-71
2023/11/26 08:09:52;;;;;;;0.30;0.30;;;4.10;99.90;;;;;;4993697;28;20255;-69
2023/11/26 08:12:20;;;;;;;0.40;0.40;;;4.10;99.90;;;;;;4993460;28;20174;-69
2023/11/26 08:14:47;;;;;;;0.40;0.40;;;4.10;99.90;;;;;;4987987;28;20200;-69
2023/11/26 08:17:12;;;;;;;0.30;0.30;;;4.10;99.90;;;;;;4996278;28;20171;-70
2023/11/26 08:19:40;;;;;;;0.30;0.30;;;4.20;99.90;;;;;;5013027;28;20214;-70
2023/11/26 08:22:06;;;;;;;0.30;0.30;;;4.20;99.90;;;;;;5011167;28;20266;-72
2023/11/26 08:24:32;;;;;;;0.30;0.30;;;4.30;99.90;;;;;;5012647;28;20170;-69
2023/11/26 08:27:01;;;;;;;0.50;0.50;;;4.30;99.90;;;;;;5003223;28;20237;-70
2023/11/26 08:29:27;;;;;;;0.40;0.40;;;4.30;99.90;;;;;;4993674;28;20945;-70
2023/11/26 08:31:54;;;;;;;0.40;0.40;;;4.40;99.90;;;;;;4996905;28;20190;-71
2023/11/26 08:34:22;;;;;;;0.40;0.40;;;4.50;99.90;;;;;;4996583;28;20746;-69
2023/11/26 08:36:49;;;;;;;0.40;0.40;;;4.60;99.90;;;;;;4997905;28;20741;-71
2023/11/26 08:39:19;;;;;;;0.40;0.40;;;4.60;99.90;;;;;;4996593;28;20234;-72
2023/11/26 08:41:50;;;;;;;0.40;0.40;;;4.70;99.90;;;;;;4983308;28;20190;-67
2023/11/26 08:44:15;;;;;;;0.30;0.30;;;4.80;99.90;;;;;;4996516;28;20525;-69
2023/11/26 08:46:41;;;;;;;0.30;0.30;;;4.80;99.90;;;;;;4998980;28;20198;-69
2023/11/26 08:49:08;;;;;;;0.30;0.30;;;4.90;99.90;;;;;;4996808;28;20183;-69
2023/11/26 08:51:36;;;;;;;0.30;0.30;;;4.90;99.90;;;;;;4997709;28;20203;-70
2023/11/26 08:54:02;;;;;;;0.38;0.38;;;5.00;99.90;;;;;;4996326;28;20198;-71
2023/11/26 08:56:31;;;;;;;0.40;0.40;;;4.90;99.90;;;;;;4978943;28;20733;-71
2023/11/26 08:58:57;;;;;;;0.45;0.45;;;5.00;99.90;;;;;;4996828;28;20286;-71
2023/11/26 09:01:22;;;;;;;0.30;0.30;;;5.10;99.90;;;;;;5014226;28;20257;-72
2023/11/26 09:03:48;;;;;;;0.40;0.40;;;5.20;99.90;;;;;;5016091;28;20205;-70
2023/11/26 09:06:14;;;;;;;0.40;0.40;;;5.30;99.90;;;;;;5013696;28;20225;-71
2023/11/26 09:08:39;;;;;;;0.30;0.30;;;5.50;99.90;;;;;;5015966;28;20533;-69
2023/11/26 09:11:06;;;;;;;0.40;0.40;;;5.60;99.90;;;;;;5015658;28;20197;-70
2023/11/26 09:13:32;;;;;;;0.30;0.30;;;5.70;99.90;;;;;;5015737;28;20221;-69
2023/11/26 09:16:00;;;;;;;0.40;0.40;;;5.70;99.90;;;;;;5008103;28;20231;-69
2023/11/26 09:18:26;;;;;;;0.30;0.30;;;5.80;99.90;;;;;;5010515;28;20703;-67
2023/11/26 09:20:51;;;;;;;0.40;0.40;;;5.90;99.90;;;;;;5015403;28;20264;-73
2023/11/26 09:23:17;;;;;;;0.30;0.30;;;5.90;99.90;;;;;;5015267;28;20175;-71
2023/11/26 09:25:43;;;;;;;0.30;0.30;;;5.80;99.90;;;;;;5014702;28;20252;-76
2023/11/26 09:28:09;;;;;;;0.30;0.30;;;5.80;99.90;;;;;;5013282;28;20190;-75
2023/11/26 09:30:35;;;;;;;0.30;0.30;;;5.80;99.90;;;;;;5015174;28;20181;-74
2023/11/26 09:33:01;;;;;;;0.30;0.30;;;5.70;99.90;;;;;;5015133;28;20167;-70
2023/11/26 09:35:26;;;;;;;0.30;0.30;;;5.60;99.90;;;;;;5012340;28;20835;-65
2023/11/26 09:37:52;;;;;;;0.30;0.30;;;5.60;99.90;;;;;;4995737;28;20172;-64
2023/11/26 09:40:18;;;;;;;0.40;0.40;;;5.60;99.90;;;;;;4995861;28;20561;-65
2023/11/26 09:42:55;;;;;;;0.33;0.33;;;5.50;99.90;;;;;;4994732;28;20449;-65
2023/11/26 09:45:21;;;;;;;0.30;0.30;;;5.50;99.90;;;;;;4996716;28;20199;-67
2023/11/26 09:47:48;;;;;;;0.37;0.37;;;5.50;99.90;;;;;;4997142;28;20225;-69
2023/11/26 09:50:14;;;;;;;0.50;0.50;;;5.60;99.90;;;;;;5014999;28;20418;-65
2023/11/26 09:52:40;;;;;;;0.63;0.63;;;5.60;99.90;;;;;;5014339;28;20542;-66
2023/11/26 09:55:08;;;;;;;0.30;0.30;;;5.70;99.90;;;;;;5014326;28;20432;-65
2023/11/26 09:57:37;;;;;;;0.52;0.52;;;5.70;99.90;;;;;;5014933;28;20178;-66
2023/11/26 10:00:06;;;;;;;0.30;0.30;;;5.80;99.90;;;;;;5014881;28;20644;-69
2023/11/26 10:02:32;;;;;;;0.30;0.30;;;5.90;99.90;;;;;;4978640;28;20669;-69
2023/11/26 10:04:57;;;;;;;0.30;0.30;;;6.00;99.90;;;;;;4994769;28;20229;-67
2023/11/26 10:07:37;;;;;;;0.30;0.30;;;6.00;99.90;;;;;;4994293;28;20195;-69
2023/11/26 10:10:12;;;;;;;0.40;0.40;;;6.20;99.90;;;;;;4993794;28;20232;-69
2023/11/26 10:13:03;;;;;;;0.38;0.38;;;6.20;99.90;;;;;;4997146;28;20183;-70
2023/11/26 10:15:32;;;;;;;0.32;0.32;;;6.30;99.90;;;;;;5010804;28;20551;-65
2023/11/26 10:18:00;;;;;;;0.30;0.30;;;6.30;99.90;;;;;;5014856;28;20245;-65
2023/11/26 10:20:27;;;;;;;0.30;0.30;;;6.30;99.90;;;;;;5014052;28;20203;-68
2023/11/26 10:22:53;;;;;;;0.40;0.40;;;6.30;99.90;;;;;;5014702;28;20167;-65
2023/11/26 10:25:19;;;;;;;0.37;0.37;;;6.30;99.90;;;;;;4995098;28;20287;-65
2023/11/26 10:27:46;;;;;;;0.40;0.40;;;6.40;99.90;;;;;;4984016;28;20518;-66
2023/11/26 10:30:23;;;;;;;0.30;0.30;;;6.40;99.90;;;;;;4994608;28;20210;-66
2023/11/26 10:33:04;;;;;;;0.30;0.30;;;6.50;99.90;;;;;;4982962;28;20179;-66
2023/11/26 10:35:52;;;;;;;0.30;0.30;;;6.60;99.90;;;;;;4973139;28;20199;-67
2023/11/26 10:38:19;;;;;;;0.30;0.30;;;6.70;99.90;;;;;;4976391;28;20266;-68
2023/11/26 10:40:46;;;;;;;0.30;0.30;;;6.80;99.90;;;;;;4975927;28;20236;-69
2023/11/26 10:43:12;;;;;;;0.30;0.30;;;6.70;99.90;;;;;;4981479;28;20206;-68
2023/11/26 10:45:39;;;;;;;0.40;0.40;;;6.80;99.90;;;;;;4989352;28;20223;-67
2023/11/26 10:48:14;;;;;;;0.30;0.30;;;6.80;99.90;;;;;;4977200;28;20183;-70
2023/11/26 10:50:48;;;;;;;0.40;0.40;;;6.80;99.90;;;;;;4974959;28;20271;-65
2023/11/26 10:53:41;;;;;;;0.30;0.30;;;6.90;99.90;;;;;;4994873;28;20221;-65
2023/11/26 10:56:09;;;;;;;0.30;0.30;;;7.10;99.90;;;;;;4976464;28;20246;-67
2023/11/26 10:58:49;;;;;;;0.30;0.30;;;7.20;99.90;;;;;;4993464;28;20210;-66
2023/11/26 11:01:15;;;;;;;0.30;0.30;;;7.40;99.90;;;;;;4993606;28;20598;-66
2023/11/26 11:03:41;;;;;;;0.30;0.30;;;7.40;99.90;;;;;;4994148;28;20175;-68
2023/11/26 11:06:08;;;;;;;0.30;0.30;;;7.50;99.90;;;;;;4993500;28;20197;-67
2023/11/26 11:08:39;;;;;;;0.45;0.45;;;7.50;99.90;;;;;;5000218;28;20175;-66
2023/11/26 11:11:23;;;;;;;0.35;0.35;;;7.50;99.90;;;;;;4994183;28;20179;-67
2023/11/26 11:13:51;;;;;;;0.40;0.40;;;7.60;99.90;;;;;;4999108;28;20207;-67
2023/11/26 11:16:18;;;;;;;0.40;0.40;;;7.60;99.90;;;;;;4997596;28;20292;-68
2023/11/26 11:18:46;;;;;;;0.30;0.30;;;7.70;99.90;;;;;;4992486;28;20171;-68
2023/11/26 11:21:16;;;;;;;0.30;0.30;;;7.60;99.90;;;;;;4994430;28;20218;-68
2023/11/26 11:23:44;;;;;;;0.40;0.40;;;7.70;99.90;;;;;;4993130;28;20168;-67
2023/11/26 11:26:15;;;;;;;0.30;0.30;;;7.70;99.90;;;;;;4975822;28;20694;-67
2023/11/26 11:28:48;;;;;;;1.13;1.10;;;7.70;99.90;;;;;;4992977;28;20175;-67
2023/11/26 11:31:19;;;;;;;0.30;0.30;;;7.60;99.90;;;;;;4973808;28;20229;-67
2023/11/26 11:33:59;;;;;;;0.40;0.40;;;7.50;99.90;;;;;;4993327;28;20238;-70
2023/11/26 11:36:49;;;;;;;0.40;0.40;;;7.40;99.90;;;;;;5008627;28;20273;-68
2023/11/26 11:39:25;;;;;;;0.30;0.30;;;7.40;99.90;;;;;;4974341;28;20215;-68
2023/11/26 11:41:59;;;;;;;0.40;0.40;;;7.40;99.90;;;;;;4974074;28;20168;-68
2023/11/26 11:44:29;;;;;;;0.40;0.40;;;7.40;99.90;;;;;;4973827;28;20178;-68
2023/11/26 11:47:02;;;;;;;0.30;0.30;;;7.30;99.90;;;;;;4973851;28;20184;-67
2023/11/26 11:49:46;;;;;;;0.40;0.40;;;7.40;99.90;;;;;;4993385;28;20171;-68
2023/11/26 11:52:16;;;;;;;0.40;0.40;;;7.30;99.90;;;;;;4993539;28;20175;-70
2023/11/26 11:55:08;;;;;;;0.30;0.30;;;7.30;99.90;;;;;;4993252;28;20183;-69
2023/11/26 11:57:53;;;;;;;0.30;0.20;;;7.30;99.90;;;;;;4992893;28;20176;-69
2023/11/26 12:00:22;;;;;;;0.40;0.40;;;7.30;99.90;;;;;;4993206;28;20211;-69
2023/11/26 12:02:52;;;;;;;0.30;0.20;;;7.40;99.90;;;;;;4993984;28;20705;-68
2023/11/26 12:05:26;;;;;;;0.30;0.30;;;7.30;99.90;;;;;;4994661;28;20187;-67
2023/11/26 12:07:52;;;;;;;0.30;0.30;;;7.40;99.90;;;;;;4990013;28;20269;-69
2023/11/26 12:10:22;;;;;;;0.30;0.30;;;7.40;99.90;;;;;;4978186;28;20545;-69
2023/11/26 12:13:02;;;;;;;0.35;0.35;;;7.50;99.90;;;;;;4978261;28;20173;-69
2023/11/26 12:15:29;;;;;;;0.40;0.40;;;7.60;99.90;;;;;;4977894;28;20326;-70
2023/11/26 12:17:56;;;;;;;0.30;0.30;;;7.60;99.90;;;;;;4987475;28;20267;-68
2023/11/26 12:20:22;;;;;;;0.40;0.40;;;7.60;99.90;;;;;;4979880;28;20338;-68
2023/11/26 12:22:49;;;;;;;0.30;0.30;;;7.70;99.90;;;;;;4997232;28;20160;-68
2023/11/26 12:25:21;;;;;;;0.30;0.30;;;7.70;99.90;;;;;;4997004;28;20218;-68
2023/11/26 12:28:03;;;;;;;0.30;0.30;;;7.70;99.90;;;;;;4988794;28;20165;-68
2023/11/26 12:30:29;;;;;;;0.65;0.65;;;7.80;99.90;;;;;;4977722;28;20176;-68
2023/11/26 12:32:54;;;;;;;0.30;0.30;;;7.80;99.90;;;;;;4977748;28;20172;-68
2023/11/26 12:35:23;;;;;;;1.63;0.90;;;8.00;99.90;;;;;;4977168;28;20439;-67
2023/11/26 12:37:49;;;;;;;0.40;0.40;;;8.00;99.90;;;;;;4985726;28;20445;-68
2023/11/26 12:40:15;;;;;;;0.30;0.30;;;8.10;99.90;;;;;;4997166;28;20199;-68
2023/11/26 12:42:43;;;;;;;0.30;0.30;;;8.00;99.90;;;;;;4997079;28;20955;-68
2023/11/26 12:45:10;;;;;;;0.30;0.30;;;8.00;99.90;;;;;;4996608;28;20196;-69
2023/11/26 12:47:53;;;;;;;0.30;0.30;;;8.00;99.90;;;;;;4990505;28;20189;-68
2023/11/26 12:50:22;;;;;;;0.30;0.30;;;8.10;99.90;;;;;;4977874;28;20212;-68
2023/11/26 12:52:49;;;;;;;0.30;0.30;;;8.10;99.90;;;;;;4977225;28;20564;-69
2023/11/26 12:55:15;;;;;;;0.30;0.20;;;8.20;99.90;;;;;;4976928;28;20192;-68
2023/11/26 12:57:42;;;;;;;0.30;0.30;;;8.20;99.90;;;;;;4982667;28;20203;-68
2023/11/26 13:00:10;;;;;;;0.30;0.30;;;8.20;99.90;;;;;;4980421;28;20207;-68
2023/11/26 13:02:37;;;;;;;0.30;0.30;;;8.30;99.90;;;;;;4977109;28;20171;-68
2023/11/26 13:05:23;;;;;;;0.30;0.30;;;8.20;99.90;;;;;;4976629;28;20184;-69
2023/11/26 13:07:49;;;;;;;0.30;0.30;;;8.10;99.90;;;;;;4982710;28;20179;-69
2023/11/26 13:10:15;;;;;;;0.30;0.30;;;8.10;99.90;;;;;;4996528;28;20176;-67
2023/11/26 13:12:44;;;;;;;0.30;0.30;;;8.00;99.90;;;;;;4996534;28;20176;-69
2023/11/26 13:15:14;;;;;;;0.30;0.30;;;8.00;99.90;;;;;;4995833;28;20187;-69
2023/11/26 13:17:40;;;;;;;0.30;0.30;;;8.10;99.90;;;;;;4991255;28;20188;-68
2023/11/26 13:20:12;;;;;;;0.30;0.30;;;8.10;99.90;;;;;;4979757;28;20196;-68
2023/11/26 13:22:39;;;;;;;0.30;0.30;;;8.10;99.90;;;;;;4992080;28;20183;-68
2023/11/26 13:25:05;;;;;;;0.30;0.30;;;8.10;99.90;;;;;;4995752;28;20286;-67
2023/11/26 13:27:30;;;;;;;0.30;0.30;;;8.20;99.90;;;;;;4996862;28;20177;-69
2023/11/26 13:29:56;;;;;;;0.30;0.30;;;8.10;99.90;;;;;;4987632;28;20702;-68
2023/11/26 13:32:21;;;;;;;0.33;0.33;;;8.10;99.90;;;;;;4976658;28;20266;-68
2023/11/26 13:34:47;;;;;;;0.30;0.30;;;8.00;99.90;;;;;;4976140;28;20176;-68
2023/11/26 13:37:16;;;;;;;0.30;0.30;;;7.80;99.90;;;;;;4976610;28;20187;-70
2023/11/26 13:39:43;;;;;;;0.30;0.30;;;7.70;99.90;;;;;;4959478;28;20211;-69
2023/11/26 13:42:09;;;;;;;0.35;0.35;;;7.70;99.90;;;;;;4976451;28;20580;-69
2023/11/26 13:44:35;;;;;;;0.30;0.30;;;7.60;99.90;;;;;;4975934;28;20172;-68
2023/11/26 13:47:01;;;;;;;0.30;0.30;;;7.50;99.90;;;;;;4976281;28;20605;-68
2023/11/26 13:49:27;;;;;;;0.30;0.30;;;7.40;99.90;;;;;;4992847;28;20211;-68
2023/11/26 13:51:53;;;;;;;0.30;0.30;;;7.40;99.90;;;;;;4995812;28;20210;-68
2023/11/26 13:54:18;;;;;;;0.47;0.40;;;7.40;99.90;;;;;;4995294;28;20175;-68
2023/11/26 13:56:44;;;;;;;0.30;0.30;;;7.40;99.90;;;;;;4978024;28;20191;-68
2023/11/26 13:59:10;;;;;;;0.30;0.30;;;7.30;99.90;;;;;;4994921;28;20717;-68
2023/11/26 14:01:36;;;;;;;0.37;0.37;;;7.40;99.90;;;;;;4995519;28;20225;-69
2023/11/26 14:04:04;;;;;;;0.30;0.30;;;7.40;99.90;;;;;;4995115;28;20403;-69
2023/11/26 14:06:30;;;;;;;0.30;0.30;;;7.40;99.90;;;;;;4995123;28;20686;-70
2023/11/26 14:08:56;;;;;;;0.40;0.40;;;7.40;99.90;;;;;;4985229;28;20264;-69
2023/11/26 14:11:22;;;;;;;0.30;0.30;;;7.30;99.90;;;;;;4975974;28;20514;-70
2023/11/26 14:13:47;;;;;;;0.30;0.30;;;7.40;99.90;;;;;;4975800;28;20267;-69
2023/11/26 14:16:16;;;;;;;0.30;0.30;;;7.40;99.90;;;;;;4975352;28;20439;-69
2023/11/26 14:18:42;;;;;;;0.50;0.50;;;7.30;99.90;;;;;;4986757;28;20191;-68
2023/11/26 14:21:08;;;;;;;0.40;0.40;;;7.30;99.90;;;;;;4995090;28;20666;-68
2023/11/26 14:23:34;;;;;;;0.30;0.30;;;7.30;99.90;;;;;;4995419;28;20195;-67
2023/11/26 14:25:59;;;;;;;0.30;0.30;;;7.30;99.90;;;;;;4994738;28;20194;-69
2023/11/26 14:28:25;;;;;;;0.37;0.37;;;7.30;99.90;;;;;;4986107;28;20215;-68
2023/11/26 14:30:51;;;;;;;0.30;0.30;;;7.30;99.90;;;;;;4975574;28;20183;-68
2023/11/26 14:33:16;;;;;;;0.40;0.40;;;7.20;99.90;;;;;;4975289;28;20416;-67
2023/11/26 14:35:43;;;;;;;0.30;0.30;;;7.30;99.90;;;;;;4974809;28;20203;-68
2023/11/26 14:38:09;;;;;;;0.30;0.30;;;7.20;99.90;;;;;;4975466;28;20194;-69
2023/11/26 14:40:36;;;;;;;0.30;0.30;;;7.20;99.90;;;;;;4975185;28;20302;-68
2023/11/26 14:43:02;;;;;;;0.40;0.40;;;7.20;99.90;;;;;;4975429;28;20184;-69
2023/11/26 14:45:28;;;;;;;0.30;0.30;;;7.20;99.90;;;;;;4975763;28;20200;-69
2023/11/26 14:47:56;;;;;;;0.30;0.30;;;7.20;99.90;;;;;;4957962;28;20218;-69
2023/11/26 14:50:22;;;;;;;0.52;0.52;;;7.20;99.90;;;;;;4975245;28;20174;-69
2023/11/26 14:52:49;;;;;;;0.30;0.30;;;7.20;99.90;;;;;;4975046;28;20548;-68
2023/11/26 14:55:15;;;;;;;0.30;0.30;;;7.20;99.90;;;;;;4982139;28;20222;-69
2023/11/26 14:57:41;;;;;;;0.30;0.30;;;7.10;99.90;;;;;;4994278;28;20246;-68
2023/11/26 15:00:09;;;;;;;0.30;0.30;;;7.00;99.90;;;;;;4994383;28;20214;-68
2023/11/26 15:02:34;;;;;;;0.40;0.40;;;7.00;99.90;;;;;;4994517;28;20194;-68
2023/11/26 15:05:00;;;;;;;0.30;0.30;;;6.90;99.90;;;;;;4988122;28;20224;-68
2023/11/26 15:07:27;;;;;;;0.30;0.30;;;6.90;99.90;;;;;;4974874;28;20511;-68
2023/11/26 15:09:52;;;;;;;0.30;0.30;;;6.80;99.90;;;;;;4974888;28;20540;-68
2023/11/26 15:12:19;;;;;;;0.30;0.30;;;6.80;99.90;;;;;;4974922;28;20172;-68
2023/11/26 15:14:44;;;;;;;0.30;0.30;;;6.80;99.90;;;;;;4977230;28;20183;-69
2023/11/26 15:17:10;;;;;;;0.30;0.30;;;6.70;99.90;;;;;;4994279;28;20654;-68
2023/11/26 15:19:36;;;;;;;0.30;0.30;;;6.70;99.90;;;;;;4994110;28;20970;-69
2023/11/26 15:22:06;;;;;;;0.30;0.30;;;6.60;99.90;;;;;;4994255;28;20222;-69
2023/11/26 15:24:35;;;;;;;0.30;0.30;;;6.60;99.90;;;;;;4992405;28;20174;-68
2023/11/26 15:27:01;;;;;;;0.38;0.38;;;6.60;99.90;;;;;;4974615;28;20194;-68
2023/11/26 15:29:27;;;;;;;0.30;0.20;;;6.50;99.90;;;;;;4974537;28;20259;-69
2023/11/26 15:31:52;;;;;;;0.30;0.30;;;6.50;99.90;;;;;;4974756;28;20257;-69
2023/11/26 15:34:18;;;;;;;0.33;0.33;;;6.50;99.90;;;;;;4974261;28;20176;-69
2023/11/26 15:36:43;;;;;;;0.30;0.30;;;6.50;99.90;;;;;;4992718;28;20202;-69
2023/11/26 15:39:09;;;;;;;0.30;0.30;;;6.50;99.90;;;;;;4993286;28;20167;-69
2023/11/26 15:41:35;;;;;;;0.30;0.30;;;6.50;99.90;;;;;;4993660;28;20526;-68
2023/11/26 15:44:00;;;;;;;0.30;0.30;;;6.40;99.90;;;;;;4993587;28;20512;-68
2023/11/26 15:46:26;;;;;;;0.30;0.30;;;6.40;99.90;;;;;;4960268;28;20238;-68
2023/11/26 15:48:56;;;;;;;0.30;0.30;;;6.40;99.90;;;;;;4974430;28;20172;-68
2023/11/26 15:51:22;;;;;;;0.30;0.30;;;6.40;99.90;;;;;;4974399;28;20565;-68
2023/11/26 15:53:48;;;;;;;0.30;0.20;;;6.40;99.90;;;;;;4974317;28;20202;-68
2023/11/26 15:56:15;;;;;;;0.30;0.30;;;6.30;99.90;;;;;;4990227;28;20254;-67
2023/11/26 15:58:40;;;;;;;0.40;0.40;;;6.40;99.90;;;;;;4993792;28;20177;-67
2023/11/26 16:01:06;;;;;;;0.73;0.60;;;6.40;99.90;;;;;;4993668;28;20496;-68
2023/11/26 16:03:32;;;;;;;0.30;0.30;;;6.40;99.90;;;;;;4993743;28;20163;-68
2023/11/26 16:05:57;;;;;;;0.30;0.30;;;6.40;99.90;;;;;;4978898;28;20635;-68
2023/11/26 16:08:23;;;;;;;0.40;0.40;;;6.40;99.90;;;;;;4974227;28;20183;-68
2023/11/26 16:10:49;;;;;;;0.30;0.30;;;6.40;99.90;;;;;;4974164;28;20203;-68
2023/11/26 16:13:15;;;;;;;0.30;0.30;;;6.40;99.90;;;;;;4974156;28;20176;-69
2023/11/26 16:15:40;;;;;;;0.30;0.30;;;6.40;99.90;;;;;;4984785;28;20565;-69
2023/11/26 16:18:06;;;;;;;0.40;0.40;;;6.40;99.90;;;;;;4993555;28;20190;-69
2023/11/26 16:20:33;;;;;;;0.30;0.30;;;6.40;99.90;;;;;;4992882;28;20830;-69
2023/11/26 16:22:59;;;;;;;0.30;0.30;;;6.40;99.90;;;;;;4993340;28;20187;-67
2023/11/26 16:25:25;;;;;;;0.60;0.60;;;6.30;99.90;;;;;;4986670;28;20207;-69
2023/11/26 16:27:50;;;;;;;0.30;0.30;;;6.30;99.90;;;;;;5010023;28;20233;-68
2023/11/26 16:30:17;;;;;;;0.30;0.30;;;6.30;99.90;;;;;;4998708;28;20186;-68
2023/11/26 16:32:44;;;;;;;0.30;0.30;;;6.30;99.90;;;;;;4996301;28;20228;-73
2023/11/26 16:35:09;;;;;;;0.38;0.38;;;6.20;99.90;;;;;;5006038;28;20244;-68
2023/11/26 16:37:35;;;;;;;0.30;0.30;;;6.10;99.90;;;;;;5003882;28;20187;-67
2023/11/26 16:40:04;;;;;;;0.30;0.30;;;6.10;99.90;;;;;;4993333;28;20314;-69
2023/11/26 16:42:30;;;;;;;0.30;0.30;;;6.10;99.90;;;;;;5009483;28;20671;-68
2023/11/26 16:44:56;;;;;;;0.30;0.30;;;6.10;99.90;;;;;;5004504;28;20184;-68
2023/11/26 16:47:21;;;;;;;0.30;0.30;;;6.00;99.90;;;;;;5016333;28;20177;-68
2023/11/26 16:49:47;;;;;;;0.30;0.30;;;6.00;99.90;;;;;;5017814;28;20406;-67
2023/11/26 16:52:12;;;;;;;0.37;0.37;;;6.00;99.90;;;;;;5019601;28;20182;-69
2023/11/26 16:54:38;;;;;;;0.30;0.30;;;6.00;99.90;;;;;;5012903;28;20185;-67
2023/11/26 16:57:04;;;;;;;0.37;0.37;;;6.00;99.90;;;;;;5014160;28;20175;-68
2023/11/26 16:59:32;;;;;;;0.30;0.30;;;6.00;99.90;;;;;;4996405;28;20255;-67
2023/11/26 17:01:58;;;;;;;0.55;0.55;;;6.00;99.90;;;;;;5001462;28;20185;-67
2023/11/26 17:04:23;;;;;;;0.33;0.33;;;5.90;99.90;;;;;;5013797;28;20178;-67
2023/11/26 17:06:50;;;;;;;0.30;0.30;;;5.90;99.90;;;;;;4994767;28;20210;-66
2023/11/26 17:09:16;;;;;;;0.30;0.30;;;6.00;99.90;;;;;;4996511;28;20199;-69
2023/11/26 17:11:42;;;;;;;0.40;0.40;;;5.90;99.90;;;;;;5013892;28;20179;-67
2023/11/26 17:14:09;;;;;;;0.40;0.40;;;5.90;99.90;;;;;;5007691;28;20549;-69
2023/11/26 17:16:35;;;;;;;0.30;0.30;;;5.90;99.90;;;;;;5009731;28;20598;-70
2023/11/26 17:19:02;;;;;;;0.30;0.30;;;5.90;99.90;;;;;;5015000;28;20177;-72
2023/11/26 17:21:28;;;;;;;0.40;0.40;;;5.90;99.90;;;;;;4996171;28;20244;-70
2023/11/26 17:23:54;;;;;;;0.30;0.30;;;5.90;99.90;;;;;;4995931;28;20638;-71
2023/11/26 17:26:24;;;;;;;0.30;0.30;;;5.90;99.90;;;;;;4979275;28;20442;-71
2023/11/26 17:28:51;;;;;;;0.30;0.30;;;5.90;99.90;;;;;;5008051;28;20249;-70
2023/11/26 17:31:27;;;;;;;0.30;0.30;;;5.90;99.90;;;;;;5000937;28;20179;-71
2023/11/26 17:33:54;;;;;;;0.40;0.40;;;5.80;99.90;;;;;;4978016;28;20175;-71
2023/11/26 17:36:19;;;;;;;0.30;0.30;;;5.80;99.90;;;;;;4996177;28;20288;-70
2023/11/26 17:38:45;;;;;;;0.30;0.30;;;5.80;99.90;;;;;;4995455;28;20679;-70
2023/11/26 17:41:11;;;;;;;0.30;0.30;;;5.80;99.90;;;;;;4978235;28;20210;-71
2023/11/26 17:43:36;;;;;;;0.30;0.30;;;5.80;99.90;;;;;;4995472;28;20177;-71
2023/11/26 17:46:03;;;;;;;0.33;0.33;;;5.70;99.90;;;;;;4995377;28;20451;-72
2023/11/26 17:48:28;;;;;;;0.30;0.30;;;5.70;99.90;;;;;;4977593;28;20542;-70
2023/11/26 17:50:54;;;;;;;0.40;0.40;;;5.70;99.90;;;;;;4978139;28;20178;-70
2023/11/26 17:53:20;;;;;;;0.30;0.30;;;5.60;99.90;;;;;;4994792;28;20175;-70
2023/11/26 17:55:45;;;;;;;0.40;0.40;;;5.60;99.90;;;;;;4979287;28;20199;-70
2023/11/26 17:58:11;;;;;;;0.30;0.30;;;5.60;99.90;;;;;;4975905;28;20174;-70
2023/11/26 18:00:37;;;;;;;0.40;0.40;;;5.60;99.90;;;;;;4994454;28;20558;-69
2023/11/26 18:03:03;;;;;;;0.30;0.30;;;5.70;99.90;;;;;;5012381;28;20176;-71
2023/11/26 18:05:29;;;;;;;0.30;0.30;;;5.60;99.90;;;;;;4997650;28;20803;-70